Costa Pacifica — ICJA — position and weather

sailwx.info

Track history (hours):
 
Tides and Currents Weather Stations Pressure Air Temp Water Temp Dewpoint Dewpoint Depression Visibility Wind Speed Wind Dir Waves Ship Positions

Costa Pacifica

Last reported at 2017-Dec-09 18:34 UTC. Time now 2017-Dec-14 15:01 UTC.
Position N 37°08' W 001°10'.

Length 290 m; draft 8.3 m.

Type: Ship. MMSI: 247258100.

Date/timePositionNaut miles runAvg speedWind from/ knotsBaromVisibWave heightAir tempDewpointWater temp
2017-Dec-09 18:34N 37°08' W 001°10'519.7
2017-Dec-09 18:18N 37°11' W 001°05'819.7
2017-Dec-09 17:54N 37°17' W 000°58'919.6
2017-Dec-09 17:28N 37°22' W 000°49'919.5
2017-Dec-09 17:00N 37°28' W 000°41'1019.3
2017-Dec-09 16:30N 37°35' W 000°33'1019.3
2017-Dec-09 16:00N 37°43' W 000°26'918.3
2017-Dec-09 15:30N 37°51' W 000°20'918.9
2017-Dec-09 15:00N 37°59' W 000°13'37919.0
2017-Dec-08 19:06N 42°59' E 004°51'319.4
2017-Dec-08 18:56N 43°02' E 004°53'819.0
2017-Dec-08 18:30N 43°08' E 005°01'918.8
2017-Dec-08 18:00N 43°15' E 005°09'817.0
2017-Dec-08 17:31N 43°20' E 005°18'1 2.2
2017-Dec-08 16:51N 43°21' E 005°20'0 0.0
2017-Dec-08 16:20N 43°21' E 005°20'0 0.0
2017-Dec-08 15:50N 43°21' E 005°20'0 0.0
2017-Dec-08 15:14N 43°21' E 005°20'0 0.0
2017-Dec-08 14:56N 43°21' E 005°20'0 0.0
2017-Dec-08 14:26N 43°21' E 005°20'0 0.0
2017-Dec-08 13:55N 43°21' E 005°20'0 0.0
2017-Dec-08 13:28N 43°21' E 005°20'0 0.0
2017-Dec-08 12:58N 43°21' E 005°20'0 0.0
2017-Dec-08 12:28N 43°21' E 005°20'0 0.0
2017-Dec-08 12:00N 43°21' E 005°20'0 0.0
2017-Dec-08 11:30N 43°21' E 005°20'0 0.0
2017-Dec-08 10:54N 43°21' E 005°20'0 0.0
2017-Dec-08 10:30N 43°21' E 005°20'0 0.0
2017-Dec-08 09:54N 43°21' E 005°20'0 0.0
2017-Dec-08 09:29N 43°21' E 005°20'0 0.0
2017-Dec-08 08:59N 43°21' E 005°20'0 0.0
2017-Dec-08 08:29N 43°21' E 005°20'0 0.0
2017-Dec-08 08:00N 43°21' E 005°20'0 0.7
2017-Dec-08 07:29N 43°21' E 005°20'4 7.4
2017-Dec-08 07:00N 43°20' E 005°15'714.1
2017-Dec-08 06:30N 43°13' E 005°17'7418.8
2017-Dec-08 02:34N 43°10' E 006°58'121.4
2017-Dec-08 02:30N 43°11' E 006°60'1121.7
2017-Dec-08 02:00N 43°17' E 007°12'1121.4
2017-Dec-08 01:29N 43°24' E 007°24'1021.6
2017-Dec-08 01:00N 43°29' E 007°36'2120.9
2017-Dec-07 23:59N 43°43' E 007°59'1021.0
2017-Dec-07 23:30N 43°49' E 008°10'1020.7
2017-Dec-07 23:00N 43°56' E 008°20'1121.1
2017-Dec-07 22:30N 44°05' E 008°28'1020.2
2017-Dec-07 22:00N 44°15' E 008°32'4 8.8
2017-Dec-07 21:30N 44°19' E 008°29'0 0.1
2017-Dec-07 21:00N 44°19' E 008°29'0 0.0
2017-Dec-07 20:30N 44°19' E 008°29'0 0.0
2017-Dec-07 19:59N 44°19' E 008°29'0 0.0
2017-Dec-07 19:29N 44°19' E 008°29'0 0.0
2017-Dec-07 18:59N 44°19' E 008°29'0 0.0
2017-Dec-07 18:29N 44°19' E 008°29'0 0.0
2017-Dec-07 17:59N 44°19' E 008°29'0 0.0
2017-Dec-07 17:28N 44°19' E 008°29'0 0.0
2017-Dec-07 16:58N 44°19' E 008°29'0 0.0
2017-Dec-07 16:28N 44°19' E 008°29'0 0.0
2017-Dec-07 15:58N 44°19' E 008°29'0 0.0
2017-Dec-07 15:27N 44°19' E 008°29'0 0.0
2017-Dec-07 15:00N 44°19' E 008°29'0 0.0
2017-Dec-07 14:30N 44°19' E 008°29'0 0.0
2017-Dec-07 14:00N 44°19' E 008°29'0 0.0
2017-Dec-07 13:30N 44°19' E 008°29'1 1.6
2017-Dec-07 13:01N 44°19' E 008°30'5 9.1
2017-Dec-07 12:31N 44°15' E 008°34'1020.5
2017-Dec-07 12:01N 44°06' E 008°29'1019.1
2017-Dec-07 11:30N 43°58' E 008°21'4 6.1
2017-Dec-07 10:55N 43°56' E 008°18'2613.5
2017-Dec-07 08:57N 43°38' E 007°51'713.6
2017-Dec-07 08:28N 43°34' E 007°44'813.5
2017-Dec-07 07:53N 43°30' E 007°34'513.6
2017-Dec-07 07:30N 43°27' E 007°28'714.0
2017-Dec-07 07:00N 43°23' E 007°21'713.7
2017-Dec-07 06:30N 43°19' E 007°13'713.5
2017-Dec-07 06:00N 43°15' E 007°05'1413.8
2017-Dec-07 05:00N 43°07' E 006°50'6511.6
2017-Dec-06 23:21N 43°10' E 005°20'0 1.2
2017-Dec-06 22:57N 43°10' E 005°19'511.4
2017-Dec-06 22:30N 43°14' E 005°15'5 9.8
2017-Dec-06 22:00N 43°19' E 005°16'3 6.5
2017-Dec-06 21:30N 43°21' E 005°19'0 0.8
2017-Dec-06 21:00N 43°21' E 005°19'  
2017-Dec-04 10:19N 43°21' E 005°19'0 0.0
2017-Dec-04 09:58N 43°21' E 005°19'0 0.0
2017-Dec-04 09:28N 43°21' E 005°19'0 0.0
2017-Dec-04 08:58N 43°21' E 005°19'0 0.0
2017-Dec-04 08:30N 43°21' E 005°19'0 0.0
2017-Dec-04 08:00N 43°21' E 005°19'0 0.0
2017-Dec-04 07:30N 43°21' E 005°19'0 0.0
2017-Dec-04 07:00N 43°21' E 005°19'0 0.0
2017-Dec-04 06:26N 43°21' E 005°19'0 0.0
2017-Dec-04 05:56N 43°21' E 005°19'0 0.0
2017-Dec-04 05:29N 43°21' E 005°19'0 0.0
2017-Dec-04 04:59N 43°21' E 005°19'0 0.0
2017-Dec-04 04:29N 43°21' E 005°19'0 0.0
2017-Dec-04 03:58N 43°21' E 005°19'0 0.0
2017-Dec-04 03:25N 43°21' E 005°19'0 0.0
2017-Dec-04 02:58N 43°21' E 005°19'0 0.0
2017-Dec-04 02:28N 43°21' E 005°19'0 0.0
2017-Dec-04 01:55N 43°21' E 005°19'0 0.0
2017-Dec-04 01:30N 43°21' E 005°19'0 0.0
2017-Dec-04 01:00N 43°21' E 005°19'0 0.0
2017-Dec-04 00:30N 43°21' E 005°19'0 0.0
2017-Dec-04 00:00N 43°21' E 005°19'0 0.0
2017-Dec-03 23:26N 43°21' E 005°19'0 0.0
2017-Dec-03 22:59N 43°21' E 005°19'0 0.0
2017-Dec-03 22:29N 43°21' E 005°19'0 0.0
2017-Dec-03 21:59N 43°21' E 005°19'0 0.0
2017-Dec-03 21:29N 43°21' E 005°19'0 0.0
2017-Dec-03 20:58N 43°21' E 005°19'0 0.0
2017-Dec-03 20:28N 43°21' E 005°19'0 0.0
2017-Dec-03 20:00N 43°21' E 005°19'0 0.0
2017-Dec-03 19:29N 43°21' E 005°19'0 0.0
2017-Dec-03 18:59N 43°21' E 005°19'0 0.0
2017-Dec-03 18:29N 43°21' E 005°19'0 0.0
2017-Dec-03 18:00N 43°21' E 005°19'0 0.0
2017-Dec-03 17:27N 43°21' E 005°19'0 0.0
2017-Dec-03 16:56N 43°21' E 005°19'  
2017-Dec-01 07:18N 43°21' E 005°19'0 0.0
2017-Dec-01 07:00N 43°21' E 005°19'0 0.0
2017-Dec-01 06:24N 43°21' E 005°19'0 0.0
2017-Dec-01 05:51N 43°21' E 005°19'0 0.0
2017-Dec-01 05:30N 43°21' E 005°19'0 0.0
2017-Dec-01 04:50N 43°21' E 005°19'0 0.0
2017-Dec-01 04:29N 43°21' E 005°19'0 0.0
2017-Dec-01 03:59N 43°21' E 005°19'0 0.0
2017-Dec-01 03:29N 43°21' E 005°19'0 0.0
2017-Dec-01 02:59N 43°21' E 005°19'0 0.0
2017-Dec-01 02:25N 43°21' E 005°19'0 0.0
2017-Dec-01 01:58N 43°21' E 005°19'0 0.0
2017-Dec-01 01:28N 43°21' E 005°19'0 0.0
2017-Dec-01 00:58N 43°21' E 005°19'0 0.0
2017-Dec-01 00:27N 43°21' E 005°19'0 0.0
2017-Dec-01 00:00N 43°21' E 005°19'0 0.0
2017-Nov-30 23:30N 43°21' E 005°19'0 0.0
2017-Nov-30 23:00N 43°21' E 005°19'0 0.0
2017-Nov-30 22:30N 43°21' E 005°19'0 0.0
2017-Nov-30 21:59N 43°21' E 005°19'0 0.0
2017-Nov-30 21:29N 43°21' E 005°19'0 0.0
2017-Nov-30 20:59N 43°21' E 005°19'0 0.0
2017-Nov-30 20:26N 43°21' E 005°19'0 0.0
2017-Nov-30 19:59N 43°21' E 005°19'0 0.0
2017-Nov-30 19:25N 43°21' E 005°19'0 0.0
2017-Nov-30 18:58N 43°21' E 005°19'0 0.0
2017-Nov-30 18:28N 43°21' E 005°19'0 0.0
2017-Nov-30 17:55N 43°21' E 005°19'0 0.0
2017-Nov-30 17:30N 43°21' E 005°19'0 0.0
2017-Nov-30 17:00N 43°21' E 005°19'0 0.0
2017-Nov-30 16:27N 43°21' E 005°19'0 0.0
2017-Nov-30 15:57N 43°21' E 005°19'0 0.0
2017-Nov-30 15:27N 43°21' E 005°19'0 0.0
2017-Nov-30 14:59N 43°21' E 005°19'0 0.0
2017-Nov-30 14:29N 43°21' E 005°19'0 0.0
2017-Nov-30 13:59N 43°21' E 005°19'0 0.0
2017-Nov-30 13:29N 43°21' E 005°19'0 0.0
2017-Nov-30 12:59N 43°21' E 005°19'0 0.0
2017-Nov-30 12:19N 43°21' E 005°19'0 0.0
2017-Nov-30 11:58N 43°21' E 005°19'0 0.0
2017-Nov-30 11:28N 43°21' E 005°19'0 0.0
2017-Nov-30 10:00N 43°21' E 005°19'0 0.0
2017-Nov-30 09:30N 43°21' E 005°19'0 0.0
2017-Nov-30 08:57N 43°21' E 005°19'0 0.0
2017-Nov-30 08:24N 43°21' E 005°19'0 0.0
2017-Nov-30 07:59N 43°21' E 005°19'0 0.0
2017-Nov-30 07:29N 43°21' E 005°19'0 0.0
2017-Nov-30 06:56N 43°21' E 005°19'0 0.0
2017-Nov-30 06:26N 43°21' E 005°19'0 0.0
2017-Nov-30 05:55N 43°21' E 005°19'0 0.0
2017-Nov-30 05:28N 43°21' E 005°19'0 0.0
2017-Nov-30 04:58N 43°21' E 005°19'0 0.0
2017-Nov-30 04:28N 43°21' E 005°19'0 0.0
2017-Nov-30 03:58N 43°21' E 005°19'0 0.0
2017-Nov-30 03:30N 43°21' E 005°19'0 0.0
2017-Nov-30 03:00N 43°21' E 005°19'0 0.0
2017-Nov-30 02:30N 43°21' E 005°19'0 0.0
2017-Nov-30 01:57N 43°21' E 005°19'0 0.0
2017-Nov-30 01:27N 43°21' E 005°19'0 0.0
2017-Nov-30 00:59N 43°21' E 005°19'0 0.0
2017-Nov-30 00:29N 43°21' E 005°19'0 0.0
2017-Nov-29 23:59N 43°21' E 005°19'0 0.0
2017-Nov-29 23:29N 43°21' E 005°19'0 0.0
2017-Nov-29 23:00N 43°21' E 005°19'0 0.0
2017-Nov-29 22:28N 43°21' E 005°19'0 0.0
2017-Nov-29 21:58N 43°21' E 005°19'0 0.0
2017-Nov-29 21:28N 43°21' E 005°19'0 0.0
2017-Nov-29 20:55N 43°21' E 005°19'0 0.0
2017-Nov-29 20:30N 43°21' E 005°19'0 0.0
2017-Nov-29 20:00N 43°21' E 005°19'0 0.0
2017-Nov-29 19:30N 43°21' E 005°19'0 0.0
2017-Nov-29 18:57N 43°21' E 005°19'  
Track history (hours):
 
Tides and Currents Weather Stations Pressure Air Temp Water Temp Dewpoint Dewpoint Depression Visibility Wind Speed Wind Dir Waves Ship Positions

Costa Pacifica

Last reported at 2017-Dec-09 18:34 UTC. Time now 2017-Dec-14 15:01 UTC.
Position N 37°08' W 001°10'.

Length 290 m; draft 8.3 m.

Type: Ship. MMSI: 247258100.

Date/timePositionNaut miles runAvg speedWind from/ knotsBaromVisibWave heightAir tempDewpointWater temp
2017-Dec-09 18:34N 37°08' W 001°10'519.7
2017-Dec-09 18:18N 37°11' W 001°05'819.7
2017-Dec-09 17:54N 37°17' W 000°58'919.6
2017-Dec-09 17:28N 37°22' W 000°49'919.5
2017-Dec-09 17:00N 37°28' W 000°41'1019.3
2017-Dec-09 16:30N 37°35' W 000°33'1019.3
2017-Dec-09 16:00N 37°43' W 000°26'918.3
2017-Dec-09 15:30N 37°51' W 000°20'918.9
2017-Dec-09 15:00N 37°59' W 000°13'37919.0
2017-Dec-08 19:06N 42°59' E 004°51'319.4
2017-Dec-08 18:56N 43°02' E 004°53'819.0
2017-Dec-08 18:30N 43°08' E 005°01'918.8
2017-Dec-08 18:00N 43°15' E 005°09'817.0
2017-Dec-08 17:31N 43°20' E 005°18'1 2.2
2017-Dec-08 16:51N 43°21' E 005°20'0 0.0
2017-Dec-08 16:20N 43°21' E 005°20'0 0.0
2017-Dec-08 15:50N 43°21' E 005°20'0 0.0
2017-Dec-08 15:14N 43°21' E 005°20'0 0.0
2017-Dec-08 14:56N 43°21' E 005°20'0 0.0
2017-Dec-08 14:26N 43°21' E 005°20'0 0.0
2017-Dec-08 13:55N 43°21' E 005°20'0 0.0
2017-Dec-08 13:28N 43°21' E 005°20'0 0.0
2017-Dec-08 12:58N 43°21' E 005°20'0 0.0
2017-Dec-08 12:28N 43°21' E 005°20'0 0.0
2017-Dec-08 12:00N 43°21' E 005°20'0 0.0
2017-Dec-08 11:30N 43°21' E 005°20'0 0.0
2017-Dec-08 10:54N 43°21' E 005°20'0 0.0
2017-Dec-08 10:30N 43°21' E 005°20'0 0.0
2017-Dec-08 09:54N 43°21' E 005°20'0 0.0
2017-Dec-08 09:29N 43°21' E 005°20'0 0.0
2017-Dec-08 08:59N 43°21' E 005°20'0 0.0
2017-Dec-08 08:29N 43°21' E 005°20'0 0.0
2017-Dec-08 08:00N 43°21' E 005°20'0 0.7
2017-Dec-08 07:29N 43°21' E 005°20'4 7.4
2017-Dec-08 07:00N 43°20' E 005°15'714.1
2017-Dec-08 06:30N 43°13' E 005°17'7418.8
2017-Dec-08 02:34N 43°10' E 006°58'121.4
2017-Dec-08 02:30N 43°11' E 006°60'1121.7
2017-Dec-08 02:00N 43°17' E 007°12'1121.4
2017-Dec-08 01:29N 43°24' E 007°24'1021.6
2017-Dec-08 01:00N 43°29' E 007°36'2120.9
2017-Dec-07 23:59N 43°43' E 007°59'1021.0
2017-Dec-07 23:30N 43°49' E 008°10'1020.7
2017-Dec-07 23:00N 43°56' E 008°20'1121.1
2017-Dec-07 22:30N 44°05' E 008°28'1020.2
2017-Dec-07 22:00N 44°15' E 008°32'4 8.8
2017-Dec-07 21:30N 44°19' E 008°29'0 0.1
2017-Dec-07 21:00N 44°19' E 008°29'0 0.0
2017-Dec-07 20:30N 44°19' E 008°29'0 0.0
2017-Dec-07 19:59N 44°19' E 008°29'0 0.0
2017-Dec-07 19:29N 44°19' E 008°29'0 0.0
2017-Dec-07 18:59N 44°19' E 008°29'0 0.0
2017-Dec-07 18:29N 44°19' E 008°29'0 0.0
2017-Dec-07 17:59N 44°19' E 008°29'0 0.0
2017-Dec-07 17:28N 44°19' E 008°29'0 0.0
2017-Dec-07 16:58N 44°19' E 008°29'0 0.0
2017-Dec-07 16:28N 44°19' E 008°29'0 0.0
2017-Dec-07 15:58N 44°19' E 008°29'0 0.0
2017-Dec-07 15:27N 44°19' E 008°29'0 0.0
2017-Dec-07 15:00N 44°19' E 008°29'0 0.0
2017-Dec-07 14:30N 44°19' E 008°29'0 0.0
2017-Dec-07 14:00N 44°19' E 008°29'0 0.0
2017-Dec-07 13:30N 44°19' E 008°29'1 1.6
2017-Dec-07 13:01N 44°19' E 008°30'5 9.1
2017-Dec-07 12:31N 44°15' E 008°34'1020.5
2017-Dec-07 12:01N 44°06' E 008°29'1019.1
2017-Dec-07 11:30N 43°58' E 008°21'4 6.1
2017-Dec-07 10:55N 43°56' E 008°18'2613.5
2017-Dec-07 08:57N 43°38' E 007°51'713.6
2017-Dec-07 08:28N 43°34' E 007°44'813.5
2017-Dec-07 07:53N 43°30' E 007°34'513.6
2017-Dec-07 07:30N 43°27' E 007°28'714.0
2017-Dec-07 07:00N 43°23' E 007°21'713.7
2017-Dec-07 06:30N 43°19' E 007°13'713.5
2017-Dec-07 06:00N 43°15' E 007°05'1413.8
2017-Dec-07 05:00N 43°07' E 006°50'6511.6
2017-Dec-06 23:21N 43°10' E 005°20'0 1.2
2017-Dec-06 22:57N 43°10' E 005°19'511.4
2017-Dec-06 22:30N 43°14' E 005°15'5 9.8
2017-Dec-06 22:00N 43°19' E 005°16'3 6.5
2017-Dec-06 21:30N 43°21' E 005°19'0 0.8
2017-Dec-06 21:00N 43°21' E 005°19'  
2017-Dec-04 10:19N 43°21' E 005°19'0 0.0
2017-Dec-04 09:58N 43°21' E 005°19'0 0.0
2017-Dec-04 09:28N 43°21' E 005°19'0 0.0
2017-Dec-04 08:58N 43°21' E 005°19'0 0.0
2017-Dec-04 08:30N 43°21' E 005°19'0 0.0
2017-Dec-04 08:00N 43°21' E 005°19'0 0.0
2017-Dec-04 07:30N 43°21' E 005°19'0 0.0
2017-Dec-04 07:00N 43°21' E 005°19'0 0.0
2017-Dec-04 06:26N 43°21' E 005°19'0 0.0
2017-Dec-04 05:56N 43°21' E 005°19'0 0.0
2017-Dec-04 05:29N 43°21' E 005°19'0 0.0
2017-Dec-04 04:59N 43°21' E 005°19'0 0.0
2017-Dec-04 04:29N 43°21' E 005°19'0 0.0
2017-Dec-04 03:58N 43°21' E 005°19'0 0.0
2017-Dec-04 03:25N 43°21' E 005°19'0 0.0
2017-Dec-04 02:58N 43°21' E 005°19'0 0.0
2017-Dec-04 02:28N 43°21' E 005°19'0 0.0
2017-Dec-04 01:55N 43°21' E 005°19'0 0.0
2017-Dec-04 01:30N 43°21' E 005°19'0 0.0
2017-Dec-04 01:00N 43°21' E 005°19'0 0.0
2017-Dec-04 00:30N 43°21' E 005°19'0 0.0
2017-Dec-04 00:00N 43°21' E 005°19'0 0.0
2017-Dec-03 23:26N 43°21' E 005°19'0 0.0
2017-Dec-03 22:59N 43°21' E 005°19'0 0.0
2017-Dec-03 22:29N 43°21' E 005°19'0 0.0
2017-Dec-03 21:59N 43°21' E 005°19'0 0.0
2017-Dec-03 21:29N 43°21' E 005°19'0 0.0
2017-Dec-03 20:58N 43°21' E 005°19'0 0.0
2017-Dec-03 20:28N 43°21' E 005°19'0 0.0
2017-Dec-03 20:00N 43°21' E 005°19'0 0.0
2017-Dec-03 19:29N 43°21' E 005°19'0 0.0
2017-Dec-03 18:59N 43°21' E 005°19'0 0.0
2017-Dec-03 18:29N 43°21' E 005°19'0 0.0
2017-Dec-03 18:00N 43°21' E 005°19'0 0.0
2017-Dec-03 17:27N 43°21' E 005°19'0 0.0
2017-Dec-03 16:56N 43°21' E 005°19'  
2017-Dec-01 07:18N 43°21' E 005°19'0 0.0
2017-Dec-01 07:00N 43°21' E 005°19'0 0.0
2017-Dec-01 06:24N 43°21' E 005°19'0 0.0
2017-Dec-01 05:51N 43°21' E 005°19'0 0.0
2017-Dec-01 05:30N 43°21' E 005°19'0 0.0
2017-Dec-01 04:50N 43°21' E 005°19'0 0.0
2017-Dec-01 04:29N 43°21' E 005°19'0 0.0
2017-Dec-01 03:59N 43°21' E 005°19'0 0.0
2017-Dec-01 03:29N 43°21' E 005°19'0 0.0
2017-Dec-01 02:59N 43°21' E 005°19'0 0.0
2017-Dec-01 02:25N 43°21' E 005°19'0 0.0
2017-Dec-01 01:58N 43°21' E 005°19'0 0.0
2017-Dec-01 01:28N 43°21' E 005°19'0 0.0
2017-Dec-01 00:58N 43°21' E 005°19'0 0.0
2017-Dec-01 00:27N 43°21' E 005°19'0 0.0
2017-Dec-01 00:00N 43°21' E 005°19'0 0.0
2017-Nov-30 23:30N 43°21' E 005°19'0 0.0
2017-Nov-30 23:00N 43°21' E 005°19'0 0.0
2017-Nov-30 22:30N 43°21' E 005°19'0 0.0
2017-Nov-30 21:59N 43°21' E 005°19'0 0.0
2017-Nov-30 21:29N 43°21' E 005°19'0 0.0
2017-Nov-30 20:59N 43°21' E 005°19'0 0.0
2017-Nov-30 20:26N 43°21' E 005°19'0 0.0
2017-Nov-30 19:59N 43°21' E 005°19'0 0.0
2017-Nov-30 19:25N 43°21' E 005°19'0 0.0
2017-Nov-30 18:58N 43°21' E 005°19'0 0.0
2017-Nov-30 18:28N 43°21' E 005°19'0 0.0
2017-Nov-30 17:55N 43°21' E 005°19'0 0.0
2017-Nov-30 17:30N 43°21' E 005°19'0 0.0
2017-Nov-30 17:00N 43°21' E 005°19'0 0.0
2017-Nov-30 16:27N 43°21' E 005°19'0 0.0
2017-Nov-30 15:57N 43°21' E 005°19'0 0.0
2017-Nov-30 15:27N 43°21' E 005°19'0 0.0
2017-Nov-30 14:59N 43°21' E 005°19'0 0.0
2017-Nov-30 14:29N 43°21' E 005°19'0 0.0
2017-Nov-30 13:59N 43°21' E 005°19'0 0.0
2017-Nov-30 13:29N 43°21' E 005°19'0 0.0
2017-Nov-30 12:59N 43°21' E 005°19'0 0.0
2017-Nov-30 12:19N 43°21' E 005°19'0 0.0
2017-Nov-30 11:58N 43°21' E 005°19'0 0.0
2017-Nov-30 11:28N 43°21' E 005°19'0 0.0
2017-Nov-30 10:00N 43°21' E 005°19'0 0.0
2017-Nov-30 09:30N 43°21' E 005°19'0 0.0
2017-Nov-30 08:57N 43°21' E 005°19'0 0.0
2017-Nov-30 08:24N 43°21' E 005°19'0 0.0
2017-Nov-30 07:59N 43°21' E 005°19'0 0.0
2017-Nov-30 07:29N 43°21' E 005°19'0 0.0
2017-Nov-30 06:56N 43°21' E 005°19'0 0.0
2017-Nov-30 06:26N 43°21' E 005°19'0 0.0
2017-Nov-30 05:55N 43°21' E 005°19'0 0.0
2017-Nov-30 05:28N 43°21' E 005°19'0 0.0
2017-Nov-30 04:58N 43°21' E 005°19'0 0.0
2017-Nov-30 04:28N 43°21' E 005°19'0 0.0
2017-Nov-30 03:58N 43°21' E 005°19'0 0.0
2017-Nov-30 03:30N 43°21' E 005°19'0 0.0
2017-Nov-30 03:00N 43°21' E 005°19'0 0.0
2017-Nov-30 02:30N 43°21' E 005°19'0 0.0
2017-Nov-30 01:57N 43°21' E 005°19'0 0.0
2017-Nov-30 01:27N 43°21' E 005°19'0 0.0
2017-Nov-30 00:59N 43°21' E 005°19'0 0.0
2017-Nov-30 00:29N 43°21' E 005°19'0 0.0
2017-Nov-29 23:59N 43°21' E 005°19'0 0.0
2017-Nov-29 23:29N 43°21' E 005°19'0 0.0
2017-Nov-29 23:00N 43°21' E 005°19'0 0.0
2017-Nov-29 22:28N 43°21' E 005°19'0 0.0
2017-Nov-29 21:58N 43°21' E 005°19'0 0.0
2017-Nov-29 21:28N 43°21' E 005°19'0 0.0
2017-Nov-29 20:55N 43°21' E 005°19'0 0.0
2017-Nov-29 20:30N 43°21' E 005°19'0 0.0
2017-Nov-29 20:00N 43°21' E 005°19'0 0.0
2017-Nov-29 19:30N 43°21' E 005°19'0 0.0
2017-Nov-29 18:57N 43°21' E 005°19'  

Dump ship's entire track history